createdAt,value
2019-03-10T06:31:18.113Z,2.47
2019-03-10T06:33:47.422Z,1.90
2019-03-10T06:36:16.598Z,3.15
2019-03-10T06:38:45.752Z,1.63
2019-03-10T06:41:15.132Z,1.80
2019-03-10T06:43:44.328Z,2.12
2019-03-10T06:46:13.480Z,1.95
2019-03-10T06:48:42.829Z,2.05
2019-03-10T06:51:11.978Z,1.45
2019-03-10T06:53:41.143Z,2.52
2019-03-10T06:56:10.286Z,3.02
2019-03-10T06:58:39.450Z,2.00
2019-03-10T07:01:08.602Z,2.87
2019-03-10T07:03:37.759Z,3.05
2019-03-10T07:06:06.919Z,2.90
2019-03-10T07:08:36.076Z,2.77
2019-03-10T07:11:05.228Z,2.62
2019-03-10T07:13:34.390Z,3.08
2019-03-10T07:16:03.545Z,2.58
2019-03-10T07:18:33.082Z,3.40
2019-03-10T07:21:02.289Z,2.87
2019-03-10T07:23:31.441Z,4.55
2019-03-10T07:26:06.560Z,3.00
2019-03-10T07:28:43.568Z,3.58
2019-03-10T07:31:26.289Z,2.45
2019-03-10T07:33:57.099Z,2.37
2019-03-10T07:36:28.001Z,3.50
2019-03-10T07:38:58.861Z,3.35
2019-03-10T07:41:41.365Z,3.60
2019-03-10T07:44:12.172Z,3.65
2019-03-10T07:46:42.999Z,2.40
2019-03-10T07:49:13.871Z,4.08
2019-03-10T07:51:44.694Z,3.47
2019-03-10T07:54:27.237Z,3.15
2019-03-10T07:57:00.798Z,2.52
2019-03-10T07:59:43.736Z,3.58
2019-03-10T08:02:31.353Z,2.85
2019-03-10T08:05:03.162Z,2.72
2019-03-10T08:07:42.903Z,3.47
2019-03-10T08:10:29.822Z,3.55
2019-03-10T08:13:16.908Z,2.83
2019-03-10T08:16:04.457Z,4.10
2019-03-10T08:18:38.190Z,3.42
2019-03-10T08:21:15.030Z,3.85
2019-03-10T08:23:45.836Z,3.60
2019-03-10T08:26:19.436Z,3.30
2019-03-10T08:28:52.929Z,3.45
2019-03-10T08:31:29.934Z,3.90
2019-03-10T08:34:09.817Z,3.65
2019-03-10T08:36:43.219Z,3.10
2019-03-10T08:39:14.051Z,3.20
2019-03-10T08:41:47.676Z,5.30
2019-03-10T08:44:18.503Z,3.83
2019-03-10T08:47:05.431Z,9.10
2019-03-10T08:49:45.019Z,3.70
2019-03-10T08:52:16.441Z,4.20
2019-03-10T08:54:50.090Z,3.65
2019-03-10T08:57:21.323Z,1.85
2019-03-10T08:59:53.334Z,2.87
2019-03-10T09:02:40.693Z,4.20
2019-03-10T09:05:17.514Z,2.90
2019-03-10T09:08:04.837Z,2.22
2019-03-10T09:10:36.162Z,3.00
2019-03-10T09:13:07.172Z,3.83
2019-03-10T09:15:41.232Z,2.62
2019-03-10T09:18:21.726Z,4.15
2019-03-10T09:20:55.738Z,2.92
2019-03-10T09:23:43.185Z,3.50
2019-03-10T09:26:23.063Z,3.10
2019-03-10T09:29:03.233Z,2.77
2019-03-10T09:31:37.310Z,3.62
2019-03-10T09:34:11.023Z,2.30
2019-03-10T09:36:42.113Z,3.37
2019-03-10T09:39:19.052Z,3.00
2019-03-10T09:42:06.526Z,3.45
2019-03-10T09:44:53.805Z,3.58
2019-03-10T09:47:30.525Z,4.08
2019-03-10T09:50:08.066Z,3.15
2019-03-10T09:52:45.013Z,2.85
2019-03-10T09:55:27.879Z,3.83
2019-03-10T09:58:01.233Z,2.47
2019-03-10T10:00:32.088Z,2.02
2019-03-10T10:03:19.310Z,3.20
2019-03-10T10:05:50.097Z,2.70
2019-03-10T10:08:23.912Z,2.02
2019-03-10T10:11:00.891Z,2.52
2019-03-10T10:13:43.715Z,2.70
2019-03-10T10:16:26.324Z,2.55
2019-03-10T10:19:03.362Z,2.55
2019-03-10T10:21:40.016Z,2.45
2019-03-10T10:24:16.601Z,2.25
2019-03-10T10:26:47.391Z,2.37
2019-03-10T10:29:20.981Z,2.72
2019-03-10T10:32:00.589Z,2.67
2019-03-10T10:34:47.671Z,3.00
2019-03-10T10:37:24.446Z,2.58
2019-03-10T10:40:07.192Z,2.70
2019-03-10T10:42:54.407Z,2.60
2019-03-10T10:45:34.404Z,1.98
2019-03-10T10:48:17.041Z,2.47
2019-03-10T10:50:47.941Z,2.90
2019-03-10T10:53:34.070Z,2.72
2019-03-10T10:56:10.571Z,2.72
2019-03-10T10:58:41.762Z,2.47
2019-03-10T11:01:15.356Z,2.42
2019-03-10T11:03:58.511Z,2.20
2019-03-10T11:06:38.431Z,2.00
2019-03-10T11:09:26.093Z,3.35
2019-03-10T11:11:56.933Z,3.85
2019-03-10T11:14:33.572Z,2.37
2019-03-10T11:17:07.209Z,3.05
2019-03-10T11:19:38.044Z,2.85
2019-03-10T11:22:08.873Z,2.67
2019-03-10T11:24:42.427Z,2.42
2019-03-10T11:27:19.361Z,2.50
2019-03-10T11:29:55.764Z,2.60
2019-03-10T11:32:26.581Z,2.22
2019-03-10T11:35:13.428Z,2.72
2019-03-10T11:37:54.061Z,2.72
2019-03-10T11:40:27.624Z,4.17
2019-03-10T11:42:58.440Z,3.45
2019-03-10T11:45:44.152Z,2.87
2019-03-10T11:48:14.961Z,2.52
2019-03-10T11:50:51.444Z,3.05
2019-03-10T11:53:31.443Z,3.52
2019-03-10T11:56:14.289Z,3.37
2019-03-10T11:59:03.648Z,3.72
2019-03-10T12:01:43.442Z,4.65
2019-03-10T12:04:29.795Z,2.90
2019-03-10T12:07:16.532Z,3.05
2019-03-10T12:09:46.347Z,3.55
2019-03-10T12:12:15.760Z,2.35
2019-03-10T12:14:45.287Z,2.02
2019-03-10T12:17:14.773Z,3.45
2019-03-10T12:19:44.587Z,3.22
2019-03-10T12:22:14.099Z,2.27
2019-03-10T12:24:43.395Z,3.58
2019-03-10T12:27:12.852Z,4.00
2019-03-10T12:29:42.230Z,3.52
2019-03-10T12:32:11.680Z,2.75
2019-03-10T12:34:41.264Z,2.50
2019-03-10T12:37:11.064Z,3.60
2019-03-10T12:39:40.370Z,2.62
2019-03-10T12:42:09.811Z,2.08
2019-03-10T12:44:39.223Z,2.30
2019-03-10T12:47:08.529Z,1.92
2019-03-10T12:49:37.674Z,2.10
2019-03-10T12:52:07.069Z,2.70
2019-03-10T12:54:36.215Z,2.15
2019-03-10T12:57:05.615Z,2.08
2019-03-10T12:59:35.205Z,2.62
2019-03-10T13:02:04.358Z,6.15
2019-03-10T13:04:33.642Z,3.15
2019-03-10T13:07:03.170Z,1.75
2019-03-10T13:09:32.291Z,1.85
2019-03-10T13:12:01.418Z,2.27
2019-03-10T13:14:31.048Z,2.70
2019-03-10T13:17:00.609Z,1.10
2019-03-10T13:19:29.757Z,2.60
2019-03-10T13:21:58.916Z,2.87
2019-03-10T13:24:28.059Z,2.30
2019-03-10T13:26:57.251Z,2.27
2019-03-10T13:29:26.389Z,1.60
2019-03-10T13:31:55.528Z,1.57
2019-03-10T13:34:25.871Z,1.72
2019-03-10T13:36:55.017Z,2.00
2019-03-10T13:39:24.149Z,1.85
2019-03-10T13:41:53.316Z,1.37
2019-03-10T13:44:51.348Z,1.60
2019-03-10T13:47:07.341Z,1.85
2019-03-10T13:49:36.545Z,2.02
2019-03-10T13:52:06.644Z,4.28
2019-03-10T13:54:35.840Z,2.15
2019-03-10T13:57:04.967Z,2.55
2019-03-10T13:59:34.099Z,2.12
2019-03-10T14:02:03.276Z,2.50
2019-03-10T14:04:32.415Z,1.77
2019-03-10T14:07:01.550Z,3.12
2019-03-10T14:09:30.795Z,3.98
2019-03-10T14:12:00.006Z,14.93
2019-03-10T14:14:29.161Z,7.87
2019-03-10T14:16:58.339Z,5.37
2019-03-10T14:19:27.529Z,6.03
2019-03-10T14:21:56.714Z,7.40
2019-03-10T14:24:25.911Z,10.30
2019-03-10T14:26:55.042Z,7.50
2019-03-10T14:29:24.200Z,19.75
2019-03-10T14:31:53.409Z,7.50
2019-03-10T14:34:22.561Z,6.35
2019-03-10T14:36:51.722Z,4.15
2019-03-10T14:39:20.935Z,3.83
2019-03-10T14:41:50.120Z,3.65
2019-03-10T14:47:11.956Z,4.67
2019-03-10T14:49:41.120Z,7.85
2019-03-10T14:52:10.282Z,18.90
2019-03-10T14:54:39.515Z,12.13
2019-03-10T14:57:09.747Z,14.60
2019-03-10T14:59:38.994Z,11.45
2019-03-10T15:02:08.161Z,9.33
2019-03-10T15:04:37.334Z,7.47
2019-03-10T15:07:06.562Z,6.35
2019-03-10T15:09:35.710Z,7.28
2019-03-10T15:12:04.852Z,7.83
2019-03-10T15:14:34.106Z,8.28
2019-03-10T15:17:03.240Z,8.68
2019-03-10T15:19:32.762Z,28.00
2019-03-10T15:22:02.041Z,30.10
2019-03-10T15:24:31.260Z,15.40
2019-03-10T15:27:00.409Z,11.75
2019-03-10T15:29:29.854Z,10.25
2019-03-10T15:31:58.986Z,4.17
2019-03-10T15:34:28.197Z,5.58
2019-03-10T15:36:57.334Z,3.02
2019-03-10T15:39:27.367Z,3.70
2019-03-10T15:41:57.056Z,5.35
2019-03-10T15:44:26.307Z,3.35
2019-03-10T15:46:55.532Z,2.47
2019-03-10T15:49:24.659Z,2.75
2019-03-10T15:51:53.951Z,2.00
2019-03-10T15:54:23.095Z,2.33
2019-03-10T15:56:52.256Z,2.60
2019-03-10T15:59:21.466Z,2.35
2019-03-10T16:04:50.075Z,2.83
2019-03-10T16:07:20.346Z,3.90
2019-03-10T16:09:49.615Z,4.05
2019-03-10T16:12:18.808Z,50.05
2019-03-10T16:14:47.966Z,35.88
2019-03-10T16:17:17.129Z,17.57
2019-03-10T16:19:46.285Z,17.48
2019-03-10T16:22:15.446Z,19.70
2019-03-10T16:24:44.622Z,20.08
2019-03-10T16:27:13.783Z,39.18
2019-03-10T16:29:43.031Z,57.53
2019-03-10T16:32:12.195Z,57.43
2019-03-10T16:34:41.365Z,40.35
2019-03-10T16:37:10.547Z,32.83
2019-03-10T16:39:39.705Z,32.13
2019-03-10T16:42:08.873Z,51.68
2019-03-10T16:44:38.038Z,38.80
2019-03-10T16:47:07.180Z,35.98
2019-03-10T16:49:36.381Z,24.95
2019-03-10T16:52:05.534Z,25.35
2019-03-10T16:54:34.708Z,29.00
2019-03-10T16:57:03.930Z,22.73
2019-03-10T16:59:34.222Z,20.05
2019-03-10T17:02:03.829Z,26.25
2019-03-10T17:04:33.019Z,29.80
2019-03-10T17:07:02.181Z,35.30
2019-03-10T17:09:31.317Z,37.80
2019-03-10T17:12:00.513Z,37.17
2019-03-10T17:14:30.729Z,39.33
2019-03-10T17:16:59.934Z,40.08
2019-03-10T17:19:29.502Z,29.10
2019-03-10T17:21:58.744Z,30.27
2019-03-10T17:24:27.911Z,28.60
2019-03-10T17:26:57.057Z,37.70
2019-03-10T17:29:26.329Z,54.50
2019-03-10T17:31:55.470Z,53.60
2019-03-10T17:34:24.632Z,28.65
2019-03-10T17:36:54.893Z,34.83
2019-03-10T17:39:24.046Z,41.55
2019-03-10T17:41:53.218Z,42.08
2019-03-10T17:44:22.456Z,41.40
2019-03-10T17:46:53.113Z,87.57
2019-03-10T17:49:22.284Z,63.08
2019-03-10T17:51:51.538Z,49.18
2019-03-10T17:54:20.696Z,41.37
2019-03-10T17:56:49.837Z,38.60
2019-03-10T17:59:19.055Z,36.15
2019-03-10T18:01:48.300Z,46.35
2019-03-10T18:04:17.472Z,34.35
2019-03-10T18:06:46.696Z,36.00
2019-03-10T18:09:15.869Z,28.55
2019-03-10T18:11:45.034Z,28.17
2019-03-10T18:14:14.183Z,27.37
2019-03-10T18:16:43.355Z,30.72
2019-03-10T18:19:12.527Z,26.30
2019-03-10T18:21:41.687Z,24.15
2019-03-10T18:24:10.867Z,21.45
2019-03-10T18:26:40.177Z,17.20
2019-03-10T18:29:09.309Z,19.80
2019-03-10T18:31:38.637Z,18.92
2019-03-10T18:34:09.046Z,18.35
2019-03-10T18:36:38.548Z,17.95
2019-03-10T18:39:07.727Z,23.12
2019-03-10T18:41:38.593Z,21.82
2019-03-10T18:44:07.840Z,20.57
2019-03-10T18:46:37.071Z,22.45
2019-03-10T18:49:06.264Z,20.30
2019-03-10T18:51:35.403Z,19.67
2019-03-10T18:54:04.584Z,20.45
2019-03-10T18:56:33.817Z,21.62
2019-03-10T18:59:03.066Z,25.08
2019-03-10T19:01:32.246Z,25.45
2019-03-10T19:04:01.466Z,28.02
2019-03-10T19:06:30.739Z,26.52
2019-03-10T19:08:59.906Z,22.37
2019-03-10T19:11:29.061Z,21.30
2019-03-10T19:13:59.407Z,21.68
2019-03-10T19:16:28.629Z,23.00
2019-03-10T19:18:58.129Z,23.62
2019-03-10T19:21:27.364Z,39.35
2019-03-10T19:23:56.544Z,54.98
2019-03-10T19:26:25.823Z,79.80
2019-03-10T19:28:54.970Z,65.80
2019-03-10T19:31:24.244Z,22.32
2019-03-10T19:33:54.437Z,24.18
2019-03-10T19:36:23.687Z,27.35
2019-03-10T19:38:52.914Z,28.17
2019-03-10T19:41:22.172Z,41.48
2019-03-10T19:43:51.605Z,35.73
2019-03-10T19:46:20.866Z,35.35
2019-03-10T19:48:50.119Z,15.80
2019-03-10T19:51:19.285Z,14.18
2019-03-10T19:53:48.531Z,13.93
2019-03-10T19:56:17.835Z,15.03
2019-03-10T19:58:47.165Z,16.35
2019-03-10T20:01:16.423Z,17.50
2019-03-10T20:03:45.745Z,18.40
2019-03-10T20:06:15.010Z,17.40
2019-03-10T20:08:44.284Z,15.25
2019-03-10T20:11:13.540Z,15.40
2019-03-10T20:13:42.877Z,22.58
2019-03-10T20:16:12.177Z,21.73
2019-03-10T20:18:41.507Z,25.45
2019-03-10T20:21:10.760Z,22.35
2019-03-10T20:23:40.062Z,22.58
2019-03-10T20:26:09.464Z,17.60
2019-03-10T20:28:40.394Z,17.45
2019-03-10T20:31:09.697Z,17.23
2019-03-10T20:33:38.935Z,16.73
2019-03-10T20:36:08.264Z,16.80
2019-03-10T20:38:37.515Z,17.98
2019-03-10T20:41:06.761Z,16.82
2019-03-10T20:43:35.998Z,14.47
2019-03-10T20:46:05.293Z,16.55
2019-03-10T20:48:34.566Z,18.52
2019-03-10T20:51:05.292Z,15.38
2019-03-10T20:53:35.204Z,15.75
2019-03-10T20:56:04.523Z,13.35
2019-03-10T20:58:34.978Z,11.53
2019-03-10T21:01:04.397Z,10.65
2019-03-10T21:03:34.356Z,12.82
2019-03-10T21:06:04.095Z,12.20
2019-03-10T21:08:33.358Z,11.20
2019-03-10T21:11:02.768Z,10.30
2019-03-10T21:13:32.108Z,10.10
2019-03-10T21:16:01.426Z,9.40
2019-03-10T21:18:30.708Z,7.67
2019-03-10T21:21:01.094Z,8.13
2019-03-10T21:23:30.362Z,7.87
2019-03-10T21:25:59.508Z,8.08
2019-03-10T21:28:28.651Z,7.85
2019-03-10T21:30:57.953Z,7.17
2019-03-10T21:33:27.435Z,8.88
2019-03-10T21:35:56.652Z,7.80
2019-03-10T21:38:26.067Z,9.65
2019-03-10T21:40:55.374Z,9.73
2019-03-10T21:43:24.597Z,10.33
2019-03-10T21:45:53.843Z,8.93
2019-03-10T21:48:23.440Z,10.47
2019-03-10T21:50:52.848Z,8.97
2019-03-10T21:53:21.982Z,8.93
2019-03-10T21:55:52.277Z,8.80
2019-03-10T21:58:21.551Z,8.90
2019-03-10T22:00:50.775Z,7.57
2019-03-10T22:03:20.063Z,7.87
2019-03-10T22:05:49.285Z,8.65
2019-03-10T22:08:18.515Z,7.60
2019-03-10T22:10:48.791Z,7.03
2019-03-10T22:13:18.001Z,6.73
2019-03-10T22:15:47.284Z,5.00
2019-03-10T22:18:17.526Z,5.70
2019-03-10T22:20:46.669Z,6.00
2019-03-10T22:23:15.840Z,5.60
2019-03-10T22:25:45.136Z,4.97
2019-03-10T22:28:14.287Z,5.20
2019-03-10T22:30:43.886Z,4.33
2019-03-10T22:33:13.085Z,4.00
2019-03-10T22:35:42.338Z,3.77
2019-03-10T22:38:11.479Z,4.37
2019-03-10T22:40:41.937Z,4.90
2019-03-10T22:43:11.166Z,4.20
2019-03-10T22:45:40.336Z,4.90
2019-03-10T22:48:09.481Z,5.07
2019-03-10T22:50:38.639Z,4.70
2019-03-10T22:53:07.816Z,4.67
2019-03-10T22:55:37.099Z,5.07
2019-03-10T22:58:06.323Z,2.97
2019-03-10T23:00:46.181Z,4.00
2019-03-10T23:03:16.649Z,3.50
2019-03-10T23:05:45.865Z,2.10
2019-03-10T23:08:15.017Z,3.80
2019-03-10T23:10:44.315Z,3.17
2019-03-10T23:13:13.513Z,2.60
2019-03-10T23:15:42.692Z,2.43
2019-03-10T23:18:11.945Z,1.43
2019-03-10T23:20:41.086Z,1.60
2019-03-10T23:23:10.276Z,2.50
2019-03-10T23:25:39.494Z,2.13
2019-03-10T23:28:08.795Z,1.47
2019-03-10T23:30:38.024Z,2.23
2019-03-10T23:33:07.159Z,1.20
2019-03-10T23:35:36.933Z,2.30
2019-03-10T23:38:06.203Z,2.00
2019-03-10T23:40:35.353Z,2.10
2019-03-10T23:43:04.567Z,1.40
2019-03-10T23:45:33.765Z,2.13
2019-03-10T23:48:03.058Z,2.27
2019-03-10T23:50:32.303Z,2.40
2019-03-10T23:53:01.510Z,2.70
2019-03-10T23:55:30.785Z,3.43
2019-03-10T23:58:00.669Z,2.50
